Time;durP1;ratioP1;P1;durP2;ratioP2;P2;SDS_P1;SDS_P2;PMS_P1;PMS_P2;Temp;Humidity;BMP_temperature;BMP_pressure;BME280_temperature;BME280_humidity;BME280_pressure;Samples;Min_cycle;Max_cycle;Signal;HPM_P1;HPM_P2
2022/04/23 00:01:11;;;;;;;;;;;13.70;65.50;;;;;;5026880;28;87256;-51
2022/04/23 00:03:36;;;;;;;;;;;13.60;65.50;;;;;;5026478;28;87923;-50
2022/04/23 00:06:02;;;;;;;;;;;13.70;65.60;;;;;;5026442;28;87043;-50
2022/04/23 00:08:28;;;;;;;;;;;13.70;65.60;;;;;;5026903;28;86842;-50
2022/04/23 00:10:53;;;;;;;;;;;13.60;65.50;;;;;;5026819;28;87725;-50
2022/04/23 00:13:19;;;;;;;;;;;13.60;65.50;;;;;;5029396;28;86917;-50
2022/04/23 00:15:45;;;;;;;;;;;13.60;65.40;;;;;;5026221;28;87414;-50
2022/04/23 00:18:11;;;;;;;;;;;13.60;65.40;;;;;;5025169;28;88166;-51
2022/04/23 00:20:37;;;;;;;;;;;13.60;65.40;;;;;;5026302;28;88961;-50
2022/04/23 00:23:04;;;;;;;;;;;13.60;65.30;;;;;;5026364;28;87587;-50
2022/04/23 00:25:31;;;;;;;;;;;13.60;65.30;;;;;;5026254;28;86888;-50
2022/04/23 00:27:57;;;;;;;;;;;13.60;65.20;;;;;;5026296;28;87050;-50
2022/04/23 00:30:23;;;;;;;;;;;13.60;65.20;;;;;;5026106;28;87476;-50
2022/04/23 00:32:48;;;;;;;;;;;13.60;65.20;;;;;;5026227;28;86956;-50
2022/04/23 00:35:14;;;;;;;;;;;13.60;65.20;;;;;;5029500;28;86704;-50
2022/04/23 00:37:41;;;;;;;;;;;13.60;65.20;;;;;;5026458;28;86856;-50
2022/04/23 00:40:07;;;;;;;;;;;13.50;65.20;;;;;;5026108;28;87819;-50
2022/04/23 00:42:53;;;;;;;;;;;13.60;65.30;;;;;;5025012;28;89654;-50
2022/04/23 00:45:20;;;;;;;;;;;13.50;65.20;;;;;;5025502;28;87048;-50
2022/04/23 00:47:45;;;;;;;;;;;13.50;65.20;;;;;;5026429;28;86857;-50
2022/04/23 00:50:11;;;;;;;;;;;13.50;65.30;;;;;;5025810;28;87446;-51
2022/04/23 00:52:37;;;;;;;;;;;13.50;65.30;;;;;;5025892;28;86929;-50
2022/04/23 00:55:07;;;;;;;;;;;13.50;65.30;;;;;;5025954;28;87166;-50
2022/04/23 00:57:34;;;;;;;;;;;13.50;65.30;;;;;;5031805;28;87456;-50
2022/04/23 01:00:06;;;;;;;;;;;13.50;65.30;;;;;;5030127;28;86815;-50
2022/04/23 01:02:32;;;;;;;;;;;13.50;65.30;;;;;;5028949;28;90193;-50
2022/04/23 01:04:58;;;;;;;;;;;13.50;65.30;;;;;;5029435;28;86850;-50
2022/04/23 01:07:24;;;;;;;;;;;13.50;65.30;;;;;;5028456;28;90656;-50
2022/04/23 01:09:51;;;;;;;;;;;13.50;65.30;;;;;;5029021;28;87711;-50
2022/04/23 01:12:17;;;;;;;;;;;13.50;65.30;;;;;;5029247;28;87058;-50
2022/04/23 01:14:59;;;;;;;;;;;13.50;65.30;;;;;;5029265;28;87890;-50
2022/04/23 01:17:26;;;;;;;;;;;13.50;65.30;;;;;;5028797;28;88725;-50
2022/04/23 01:19:51;;;;;;;;;;;13.50;65.30;;;;;;5032222;28;86816;-51
2022/04/23 01:22:17;;;;;;;;;;;13.50;65.30;;;;;;5028771;28;88443;-50
2022/04/23 01:24:43;;;;;;;;;;;13.50;65.30;;;;;;5029558;28;86207;-51
2022/04/23 01:27:10;;;;;;;;;;;13.40;65.30;;;;;;5029176;28;86825;-50
2022/04/23 01:29:37;;;;;;;;;;;13.40;65.30;;;;;;5028591;28;87759;-50
2022/04/23 01:32:04;;;;;;;;;;;13.40;65.30;;;;;;5028395;28;87783;-50
2022/04/23 01:34:29;;;;;;;;;;;13.40;65.30;;;;;;5028944;28;88677;-50
2022/04/23 01:36:55;;;;;;;;;;;13.40;65.30;;;;;;5027850;28;87786;-50
2022/04/23 01:39:21;;;;;;;;;;;13.40;65.30;;;;;;5029094;28;87026;-50
2022/04/23 01:41:47;;;;;;;;;;;13.40;65.30;;;;;;5031462;28;86894;-50
2022/04/23 01:44:13;;;;;;;;;;;13.40;65.30;;;;;;5028805;28;87077;-50
2022/04/23 01:46:39;;;;;;;;;;;13.40;65.30;;;;;;5028682;28;87866;-50
2022/04/23 01:49:05;;;;;;;;;;;13.40;65.30;;;;;;5028800;28;86851;-50
2022/04/23 01:51:31;;;;;;;;;;;13.30;65.20;;;;;;5028720;28;86834;-50
2022/04/23 01:53:56;;;;;;;;;;;13.40;65.30;;;;;;5028637;28;88257;-50
2022/04/23 01:56:22;;;;;;;;;;;13.30;65.90;;;;;;5027722;28;87911;-50
2022/04/23 01:58:47;;;;;;;;;;;13.30;65.30;;;;;;5028654;28;87107;-50
2022/04/23 02:01:13;;;;;;;;;;;13.30;65.20;;;;;;5028557;28;87735;-50
2022/04/23 02:03:39;;;;;;;;;;;13.30;65.30;;;;;;5031272;28;87442;-51
2022/04/23 02:06:04;;;;;;;;;;;13.30;65.20;;;;;;5028078;28;86870;-50
2022/04/23 02:08:30;;;;;;;;;;;13.30;65.30;;;;;;5027596;28;86881;-50
2022/04/23 02:10:56;;;;;;;;;;;13.30;65.20;;;;;;5028438;28;87179;-50
2022/04/23 02:13:22;;;;;;;;;;;13.30;65.20;;;;;;5028833;28;87227;-51
2022/04/23 02:15:48;;;;;;;;;;;13.30;65.30;;;;;;5027894;28;88497;-50
2022/04/23 02:18:13;;;;;;;;;;;13.30;65.20;;;;;;5028265;28;87089;-50
2022/04/23 02:20:39;;;;;;;;;;;13.30;65.30;;;;;;5027453;28;88085;-50
2022/04/23 02:23:06;;;;;;;;;;;13.30;65.20;;;;;;5031002;28;86849;-51
2022/04/23 02:25:35;;;;;;;;;;;13.30;65.20;;;;;;5028181;28;87947;-50
2022/04/23 02:28:00;;;;;;;;;;;13.20;65.10;;;;;;5027771;28;88605;-50
2022/04/23 02:30:26;;;;;;;;;;;13.20;65.10;;;;;;5028467;28;86853;-50
2022/04/23 02:32:52;;;;;;;;;;;13.30;65.20;;;;;;5028119;28;87225;-50
2022/04/23 02:35:19;;;;;;;;;;;13.20;65.10;;;;;;5027644;28;87595;-51
2022/04/23 02:37:45;;;;;;;;;;;13.20;65.10;;;;;;5028436;28;86226;-50
2022/04/23 02:40:12;;;;;;;;;;;13.20;65.20;;;;;;5028081;28;87053;-50
2022/04/23 02:42:37;;;;;;;;;;;13.20;65.20;;;;;;5027546;28;88812;-50
2022/04/23 02:45:14;;;;;;;;;;;13.20;65.20;;;;;;5030469;28;87835;-51
2022/04/23 02:47:42;;;;;;;;;;;13.20;65.20;;;;;;5027400;28;87681;-50
2022/04/23 02:50:09;;;;;;;;;;;13.20;65.20;;;;;;5028122;28;86921;-50
2022/04/23 02:52:35;;;;;;;;;;;13.20;65.20;;;;;;5027806;28;87925;-50
2022/04/23 02:55:01;;;;;;;;;;;13.20;65.20;;;;;;5027306;28;87357;-50
2022/04/23 02:57:27;;;;;;;;;;;13.20;65.20;;;;;;5027653;28;87211;-50
2022/04/23 02:59:52;;;;;;;;;;;13.20;65.20;;;;;;5027196;28;86852;-50
2022/04/23 03:02:18;;;;;;;;;;;13.10;65.20;;;;;;5027018;28;86888;-49
2022/04/23 03:04:43;;;;;;;;;;;13.20;65.20;;;;;;5027060;28;86829;-50
2022/04/23 03:07:10;;;;;;;;;;;13.10;65.20;;;;;;5028851;28;88028;-50
2022/04/23 03:09:36;;;;;;;;;;;13.20;65.20;;;;;;5026199;28;87876;-50
2022/04/23 03:12:02;;;;;;;;;;;13.10;65.20;;;;;;5027110;28;86824;-52
2022/04/23 03:14:27;;;;;;;;;;;13.10;65.20;;;;;;5026602;28;87622;-51
2022/04/23 03:16:53;;;;;;;;;;;13.10;65.20;;;;;;5026743;28;86861;-50
2022/04/23 03:19:18;;;;;;;;;;;13.10;65.20;;;;;;5025671;28;88156;-50
2022/04/23 03:21:44;;;;;;;;;;;13.10;65.20;;;;;;5026440;28;88794;-50
2022/04/23 03:24:09;;;;;;;;;;;13.10;65.20;;;;;;5026678;28;87013;-50
2022/04/23 03:26:35;;;;;;;;;;;13.10;65.20;;;;;;5020410;28;101206;-50
2022/04/23 03:29:03;;;;;;;;;;;13.10;65.10;;;;;;5047677;28;87408;-50
2022/04/23 03:31:29;;;;;;;;;;;13.10;65.20;;;;;;5046269;28;87375;-50
2022/04/23 03:33:54;;;;;;;;;;;13.10;65.20;;;;;;5045800;28;89030;-50
2022/04/23 03:36:20;;;;;;;;;;;13.00;65.10;;;;;;5026293;28;86966;-50
2022/04/23 03:38:46;;;;;;;;;;;13.00;65.10;;;;;;5046563;28;88108;-53
2022/04/23 03:41:12;;;;;;;;;;;13.00;65.10;;;;;;5046302;28;88329;-51
2022/04/23 03:43:37;;;;;;;;;;;13.00;65.20;;;;;;5046680;28;87166;-50
2022/04/23 03:46:03;;;;;;;;;;;13.00;65.20;;;;;;5046363;28;88000;-50
2022/04/23 03:48:29;;;;;;;;;;;13.00;65.20;;;;;;5046319;28;87510;-51
2022/04/23 03:50:54;;;;;;;;;;;13.00;65.20;;;;;;5049975;28;86080;-51
2022/04/23 03:53:20;;;;;;;;;;;13.00;65.20;;;;;;5046344;28;86873;-50
2022/04/23 03:55:45;;;;;;;;;;;13.00;65.20;;;;;;5045447;28;86991;-50
2022/04/23 03:58:12;;;;;;;;;;;13.00;65.20;;;;;;5045766;28;87783;-50
2022/04/23 04:00:38;;;;;;;;;;;13.00;65.20;;;;;;5045867;28;87605;-50
2022/04/23 04:03:03;;;;;;;;;;;13.00;65.20;;;;;;5046608;28;86846;-53
2022/04/23 04:05:29;;;;;;;;;;;13.00;65.20;;;;;;5046525;28;86863;-50
2022/04/23 04:07:54;;;;;;;;;;;13.00;65.20;;;;;;5045837;28;87432;-50
2022/04/23 04:10:21;;;;;;;;;;;13.00;65.20;;;;;;5046194;28;86834;-50
2022/04/23 04:12:47;;;;;;;;;;;12.90;65.10;;;;;;5048970;28;86897;-50
2022/04/23 04:15:16;;;;;;;;;;;12.90;65.20;;;;;;5046848;28;86164;-50
2022/04/23 04:17:42;;;;;;;;;;;12.90;65.20;;;;;;5046066;28;87160;-50
2022/04/23 04:20:10;;;;;;;;;;;12.90;65.30;;;;;;5045551;28;88768;-50
2022/04/23 04:22:36;;;;;;;;;;;12.90;65.20;;;;;;5045356;28;87831;-51
2022/04/23 04:25:02;;;;;;;;;;;12.90;65.20;;;;;;5045865;28;88828;-52
2022/04/23 04:27:28;;;;;;;;;;;12.90;65.20;;;;;;5045464;28;87844;-55
2022/04/23 04:29:53;;;;;;;;;;;12.90;65.30;;;;;;5045928;28;86858;-51
2022/04/23 04:32:20;;;;;;;;;;;12.90;65.30;;;;;;5048208;28;86854;-51
2022/04/23 04:34:45;;;;;;;;;;;12.90;65.30;;;;;;5045898;28;86900;-51
2022/04/23 04:37:11;;;;;;;;;;;12.90;65.30;;;;;;5045829;28;88173;-51
2022/04/23 04:39:38;;;;;;;;;;;12.90;65.30;;;;;;5045780;28;87758;-50
2022/04/23 04:42:04;;;;;;;;;;;12.90;65.20;;;;;;5046044;28;87211;-50
2022/04/23 04:44:30;;;;;;;;;;;12.90;65.30;;;;;;5045773;28;87684;-50
2022/04/23 04:46:55;;;;;;;;;;;12.90;65.30;;;;;;5044674;28;89483;-50
2022/04/23 04:49:23;;;;;;;;;;;12.80;65.20;;;;;;5045806;28;86762;-50
2022/04/23 04:51:49;;;;;;;;;;;12.90;65.20;;;;;;5045732;28;87977;-52
2022/04/23 04:54:17;;;;;;;;;;;12.90;65.20;;;;;;5048201;28;87464;-52
2022/04/23 04:56:46;;;;;;;;;;;12.90;65.30;;;;;;5045579;28;87960;-52
2022/04/23 04:59:12;;;;;;;;;;;12.80;65.20;;;;;;5045353;28;87688;-51
2022/04/23 05:01:38;;;;;;;;;;;12.80;65.20;;;;;;5045473;28;86901;-51
2022/04/23 05:04:04;;;;;;;;;;;12.80;65.20;;;;;;5046269;28;86151;-50
2022/04/23 05:06:29;;;;;;;;;;;12.90;65.90;;;;;;5044218;28;86948;-50
2022/04/23 05:08:55;;;;;;;;;;;12.80;65.30;;;;;;5045604;28;86956;-51
2022/04/23 05:11:20;;;;;;;;;;;12.80;65.20;;;;;;5044784;28;88043;-50
2022/04/23 05:13:46;;;;;;;;;;;12.80;65.20;;;;;;5045121;28;87431;-52
2022/04/23 05:16:11;;;;;;;;;;;12.90;65.30;;;;;;5048672;28;86900;-50
2022/04/23 05:18:37;;;;;;;;;;;12.80;65.20;;;;;;5044837;28;88478;-50
2022/04/23 05:21:03;;;;;;;;;;;12.80;65.30;;;;;;5045707;28;87183;-51
2022/04/23 05:23:28;;;;;;;;;;;12.80;65.30;;;;;;5045556;28;86857;-51
2022/04/23 05:25:55;;;;;;;;;;;12.80;65.30;;;;;;5045045;28;87475;-50
2022/04/23 05:28:20;;;;;;;;;;;12.80;65.30;;;;;;5045837;28;86130;-52
2022/04/23 05:30:46;;;;;;;;;;;12.80;65.30;;;;;;5045309;28;87342;-50
2022/04/23 05:33:11;;;;;;;;;;;12.80;65.30;;;;;;5044899;28;88498;-50
2022/04/23 05:35:37;;;;;;;;;;;12.80;65.30;;;;;;5044672;28;87788;-52
2022/04/23 05:38:04;;;;;;;;;;;12.80;65.30;;;;;;5047900;28;86988;-50
2022/04/23 05:40:29;;;;;;;;;;;12.80;65.30;;;;;;5045191;28;86941;-50
2022/04/23 05:42:58;;;;;;;;;;;12.80;65.30;;;;;;5046404;27;87638;-53
2022/04/23 05:45:23;;;;;;;;;;;12.80;65.30;;;;;;5048211;28;88336;-50
2022/04/23 05:47:49;;;;;;;;;;;12.80;65.30;;;;;;5048457;28;86955;-50
2022/04/23 05:50:15;;;;;;;;;;;12.80;65.30;;;;;;5048492;28;87960;-50
2022/04/23 05:52:41;;;;;;;;;;;12.80;65.30;;;;;;5048393;28;86825;-52
2022/04/23 05:55:07;;;;;;;;;;;12.80;65.30;;;;;;5048409;28;86874;-51
2022/04/23 05:57:32;;;;;;;;;;;12.80;65.30;;;;;;5048287;28;87875;-52
2022/04/23 05:59:58;;;;;;;;;;;12.80;65.30;;;;;;5050491;28;88388;-50
2022/04/23 06:02:23;;;;;;;;;;;12.80;65.30;;;;;;5048313;28;88870;-51
2022/04/23 06:04:49;;;;;;;;;;;12.90;65.30;;;;;;5048116;28;86938;-51
2022/04/23 06:07:15;;;;;;;;;;;12.90;65.30;;;;;;5047585;28;86863;-50
2022/04/23 06:09:41;;;;;;;;;;;12.80;65.30;;;;;;5048182;28;88107;-50
2022/04/23 06:12:07;;;;;;;;;;;12.90;65.40;;;;;;5046956;28;86842;-51
2022/04/23 06:14:33;;;;;;;;;;;12.90;65.40;;;;;;5048001;28;87413;-52
2022/04/23 06:16:58;;;;;;;;;;;12.90;65.50;;;;;;5048922;28;86730;-51
2022/04/23 06:19:24;;;;;;;;;;;12.90;65.50;;;;;;5047735;28;87542;-50
2022/04/23 06:21:50;;;;;;;;;;;12.90;65.50;;;;;;5050695;28;86849;-51
2022/04/23 06:24:15;;;;;;;;;;;12.90;65.40;;;;;;5046970;28;88588;-50
2022/04/23 06:26:41;;;;;;;;;;;12.90;66.00;;;;;;5048125;28;86890;-51
2022/04/23 06:29:07;;;;;;;;;;;12.90;65.40;;;;;;5047932;28;87022;-50
2022/04/23 06:31:32;;;;;;;;;;;12.90;65.50;;;;;;5047466;28;88482;-50
2022/04/23 06:33:58;;;;;;;;;;;12.90;65.50;;;;;;5047755;28;86849;-50
2022/04/23 06:36:23;;;;;;;;;;;12.90;65.50;;;;;;5047769;28;87087;-51
2022/04/23 06:38:49;;;;;;;;;;;12.90;66.20;;;;;;5047576;28;87531;-50
2022/04/23 06:41:14;;;;;;;;;;;12.90;65.70;;;;;;5051060;28;86149;-52
2022/04/23 06:43:40;;;;;;;;;;;12.90;65.50;;;;;;5047720;28;88168;-51
2022/04/23 06:46:05;;;;;;;;;;;13.00;65.50;;;;;;5047935;28;86989;-51
2022/04/23 06:48:31;;;;;;;;;;;13.00;65.60;;;;;;5047393;28;87817;-50
2022/04/23 06:50:57;;;;;;;;;;;13.00;65.60;;;;;;5047061;28;88619;-50
2022/04/23 06:53:22;;;;;;;;;;;13.00;65.70;;;;;;5047563;28;86905;-50
2022/04/23 06:55:48;;;;;;;;;;;13.00;66.00;;;;;;5047640;28;86958;-50
2022/04/23 06:58:15;;;;;;;;;;;12.90;66.10;;;;;;5047287;28;87041;-50
2022/04/23 07:00:41;;;;;;;;;;;12.90;66.30;;;;;;5047345;28;87238;-53
2022/04/23 07:03:07;;;;;;;;;;;12.90;66.20;;;;;;5049158;28;86977;-50
2022/04/23 07:05:33;;;;;;;;;;;13.00;66.20;;;;;;5047658;28;86156;-53
2022/04/23 07:08:02;;;;;;;;;;;13.00;66.00;;;;;;5047393;28;87053;-50
2022/04/23 07:10:32;;;;;;;;;;;13.00;66.00;;;;;;5046945;28;87826;-51
2022/04/23 07:12:57;;;;;;;;;;;13.00;66.00;;;;;;5046587;28;87806;-50
2022/04/23 07:15:24;;;;;;;;;;;13.00;65.90;;;;;;5047189;28;88027;-50
2022/04/23 07:17:49;;;;;;;;;;;13.00;65.90;;;;;;5046942;28;86924;-52
2022/04/23 07:20:16;;;;;;;;;;;13.00;66.10;;;;;;5046827;28;88829;-50
2022/04/23 07:24:02;;;;;;;;;;;13.00;66.00;;;;;;5047181;28;86891;-52
2022/04/23 07:25:27;;;;;;;;;;;13.00;65.90;;;;;;5049353;28;86846;-53
2022/04/23 07:27:53;;;;;;;;;;;13.00;65.90;;;;;;5046984;28;88171;-52
2022/04/23 07:30:18;;;;;;;;;;;13.00;65.90;;;;;;5047050;28;86879;-50
2022/04/23 07:32:44;;;;;;;;;;;13.00;65.90;;;;;;5047065;28;86905;-52
2022/04/23 07:37:54;;;;;;;;;;;13.00;66.20;;;;;;5045960;28;87831;-50
2022/04/23 07:40:19;;;;;;;;;;;13.00;66.00;;;;;;5046787;28;86932;-50
2022/04/23 07:42:45;;;;;;;;;;;13.00;65.90;;;;;;5046621;28;87252;-51
2022/04/23 07:45:10;;;;;;;;;;;13.00;66.20;;;;;;5046142;28;87678;-51
2022/04/23 07:47:36;;;;;;;;;;;13.00;66.00;;;;;;5049419;28;87185;-54
2022/04/23 07:50:02;;;;;;;;;;;13.00;66.30;;;;;;5046151;28;87856;-53
2022/04/23 07:52:28;;;;;;;;;;;13.00;66.40;;;;;;5046419;28;86908;-51
2022/04/23 07:54:53;;;;;;;;;;;13.10;66.30;;;;;;5046998;28;87936;-51
2022/04/23 07:57:22;;;;;;;;;;;13.10;66.50;;;;;;5046435;28;86989;-51
2022/04/23 07:59:48;;;;;;;;;;;13.10;66.50;;;;;;5046556;28;86783;-51
2022/04/23 08:02:14;;;;;;;;;;;13.10;66.50;;;;;;5046221;28;87871;-51
2022/04/23 08:04:39;;;;;;;;;;;13.10;66.70;;;;;;5045881;27;88501;-51
2022/04/23 08:07:05;;;;;;;;;;;13.10;66.80;;;;;;5045072;28;86998;-53
2022/04/23 08:09:37;;;;;;;;;;;13.10;67.00;;;;;;5048840;28;87688;-51
2022/04/23 08:12:04;;;;;;;;;;;13.10;67.00;;;;;;5046307;28;86902;-54
2022/04/23 08:14:30;;;;;;;;;;;13.10;67.80;;;;;;5046573;28;86837;-51
2022/04/23 08:16:56;;;;;;;;;;;13.10;67.30;;;;;;5046143;28;88416;-53
2022/04/23 08:19:23;;;;;;;;;;;13.10;67.30;;;;;;5046701;28;86139;-54
2022/04/23 08:21:48;;;;;;;;;;;13.10;67.20;;;;;;5046200;28;86973;-51
2022/04/23 08:24:14;;;;;;;;;;;13.10;67.30;;;;;;5046094;28;87504;-53
2022/04/23 08:26:39;;;;;;;;;;;13.10;67.30;;;;;;5045576;28;87875;-54
2022/04/23 08:32:03;;;;;;;;;;;13.20;67.30;;;;;;5011293;28;87131;-50
2022/04/23 08:34:28;;;;;;;;;;;13.10;67.30;;;;;;5045823;28;88217;-51
2022/04/23 08:36:54;;;;;;;;;;;13.20;67.40;;;;;;5045504;28;88496;-52
2022/04/23 08:39:20;;;;;;;;;;;13.10;67.50;;;;;;5045677;28;86899;-51
2022/04/23 08:41:45;;;;;;;;;;;13.10;67.50;;;;;;5045428;28;86930;-51
2022/04/23 08:44:11;;;;;;;;;;;13.10;67.50;;;;;;5046172;28;86265;-51
2022/04/23 08:46:38;;;;;;;;;;;13.10;67.50;;;;;;5046021;28;86922;-51
2022/04/23 08:49:16;;;;;;;;;;;13.10;67.60;;;;;;5045814;28;87008;-51
2022/04/23 08:51:43;;;;;;;;;;;13.10;67.60;;;;;;5047537;28;89325;-50
2022/04/23 08:54:12;;;;;;;;;;;13.10;67.60;;;;;;5045739;28;87776;-51
2022/04/23 08:56:38;;;;;;;;;;;13.20;67.70;;;;;;5045565;28;87405;-52
2022/04/23 08:59:06;;;;;;;;;;;13.20;67.80;;;;;;5045675;28;86931;-50
2022/04/23 09:01:32;;;;;;;;;;;13.20;67.80;;;;;;5045608;28;87195;-52
2022/04/23 09:03:58;;;;;;;;;;;13.20;67.80;;;;;;5045269;28;88728;-51
2022/04/23 09:06:27;;;;;;;;;;;13.20;67.90;;;;;;5045138;28;86850;-50
2022/04/23 09:09:05;;;;;;;;;;;13.20;67.80;;;;;;5046017;28;87115;-52
2022/04/23 09:11:35;;;;;;;;;;;13.20;67.90;;;;;;5045315;28;87717;-50
2022/04/23 09:14:02;;;;;;;;;;;13.30;67.90;;;;;;5048260;28;86929;-51
2022/04/23 09:25:03;;;;;;;;;;;13.30;67.80;;;;;;5048807;28;86872;-51
2022/04/23 09:27:30;;;;;;;;;;;13.30;67.80;;;;;;5048986;28;86857;-52
2022/04/23 09:29:59;;;;;;;;;;;13.30;67.80;;;;;;5048871;28;88115;-51
2022/04/23 09:32:27;;;;;;;;;;;13.40;67.90;;;;;;5048271;28;87798;-54
2022/04/23 09:35:11;;;;;;;;;;;13.40;68.00;;;;;;5049229;28;86133;-51
2022/04/23 09:40:23;;;;;;;;;;;13.40;67.90;;;;;;5048613;28;86887;-51
2022/04/23 09:43:02;;;;;;;;;;;13.40;67.80;;;;;;5048053;28;88123;-51
2022/04/23 09:45:29;;;;;;;;;;;13.50;68.00;;;;;;5048279;28;88545;-51
2022/04/23 09:48:03;;;;;;;;;;;13.50;68.00;;;;;;5048479;28;87361;-51
2022/04/23 09:50:36;;;;;;;;;;;13.50;68.10;;;;;;5048484;28;88211;-51
2022/04/23 09:53:12;;;;;;;;;;;13.50;68.20;;;;;;5048074;28;88658;-50
2022/04/23 09:55:37;;;;;;;;;;;13.50;68.20;;;;;;5048290;28;86834;-50
2022/04/23 09:58:07;;;;;;;;;;;13.50;68.40;;;;;;5048335;28;88448;-50
2022/04/23 10:00:37;;;;;;;;;;;13.60;68.50;;;;;;5051132;28;87881;-50
2022/04/23 10:03:06;;;;;;;;;;;13.60;68.40;;;;;;5048214;28;86864;-51
2022/04/23 10:05:34;;;;;;;;;;;13.70;68.30;;;;;;5048113;28;88483;-51
2022/04/23 10:08:00;;;;;;;;;;;13.70;68.20;;;;;;5047395;28;87815;-51
2022/04/23 10:10:26;;;;;;;;;;;13.70;68.20;;;;;;5048032;28;88851;-53
2022/04/23 10:12:51;;;;;;;;;;;13.70;68.20;;;;;;5047598;28;87570;-50
2022/04/23 10:15:17;;;;;;;;;;;13.70;68.20;;;;;;5047964;28;86878;-50
2022/04/23 10:17:43;;;;;;;;;;;13.70;68.20;;;;;;5048495;28;87424;-51
2022/04/23 10:20:11;;;;;;;;;;;13.70;68.10;;;;;;5046969;28;87483;-53
2022/04/23 10:22:52;;;;;;;;;;;13.70;68.00;;;;;;5050905;28;87000;-51
2022/04/23 10:25:30;;;;;;;;;;;13.70;68.00;;;;;;5048010;28;87705;-51
2022/04/23 10:27:57;;;;;;;;;;;13.70;68.10;;;;;;5048036;27;87118;-51
2022/04/23 10:30:25;;;;;;;;;;;13.80;68.10;;;;;;5047702;28;86973;-50
2022/04/23 10:32:51;;;;;;;;;;;13.80;68.10;;;;;;5047106;28;88366;-53
2022/04/23 10:35:19;;;;;;;;;;;13.80;68.10;;;;;;5047739;28;86869;-50
2022/04/23 10:37:47;;;;;;;;;;;13.80;68.10;;;;;;5047781;28;87995;-50
2022/04/23 10:40:14;;;;;;;;;;;13.80;68.20;;;;;;5047178;28;87662;-51
2022/04/23 10:43:00;;;;;;;;;;;13.90;68.20;;;;;;5050600;28;87002;-51
2022/04/23 10:45:32;;;;;;;;;;;13.80;68.10;;;;;;5047044;28;89467;-51
2022/04/23 10:48:18;;;;;;;;;;;13.90;68.60;;;;;;5047595;28;86882;-51
2022/04/23 10:51:04;;;;;;;;;;;13.90;67.90;;;;;;5047942;28;88034;-51
2022/04/23 10:53:37;;;;;;;;;;;13.90;68.00;;;;;;5047559;28;86933;-53
2022/04/23 10:56:06;;;;;;;;;;;13.90;68.10;;;;;;5047368;28;86896;-50
2022/04/23 10:58:32;;;;;;;;;;;13.90;67.90;;;;;;5046052;28;87924;-52
2022/04/23 11:01:20;;;;;;;;;;;14.00;68.00;;;;;;5046892;28;88510;-51
2022/04/23 11:03:55;;;;;;;;;;;14.00;68.00;;;;;;5047363;28;86926;-51
2022/04/23 11:12:14;;;;;;;;;;;14.00;68.00;;;;;;5047647;28;86862;-52
2022/04/23 11:12:29;;;;;;;;;;;14.00;67.80;;;;;;5047017;28;87194;-53
2022/04/23 11:14:57;;;;;;;;;;;14.10;67.90;;;;;;5046777;28;88654;-50
2022/04/23 11:17:30;;;;;;;;;;;14.10;67.90;;;;;;5047660;28;86524;-51
2022/04/23 11:19:56;;;;;;;;;;;14.10;67.80;;;;;;5047204;28;87007;-51
2022/04/23 11:22:22;;;;;;;;;;;14.10;67.80;;;;;;5046475;28;87569;-51
2022/04/23 11:24:48;;;;;;;;;;;14.10;67.80;;;;;;5046254;28;88218;-51
2022/04/23 11:27:24;;;;;;;;;;;14.20;67.70;;;;;;5046808;28;88159;-50
2022/04/23 11:29:53;;;;;;;;;;;14.10;67.70;;;;;;5049386;28;88433;-52
2022/04/23 11:32:28;;;;;;;;;;;14.10;67.80;;;;;;5047304;28;87358;-51
2022/04/23 11:34:54;;;;;;;;;;;14.20;67.60;;;;;;5046507;28;87716;-51
2022/04/23 11:37:33;;;;;;;;;;;14.20;67.40;;;;;;5046657;28;86962;-50
2022/04/23 11:40:09;;;;;;;;;;;14.20;67.50;;;;;;5045990;28;87992;-50
2022/04/23 11:42:44;;;;;;;;;;;14.20;67.60;;;;;;5046075;28;86926;-50
2022/04/23 11:45:11;;;;;;;;;;;14.20;67.50;;;;;;5047000;28;86945;-50
2022/04/23 11:47:37;;;;;;;;;;;14.20;67.60;;;;;;5028591;28;89510;-52
2022/04/23 11:50:10;;;;;;;;;;;14.30;67.50;;;;;;5045502;28;89617;-53
2022/04/23 11:52:37;;;;;;;;;;;14.30;67.40;;;;;;5049513;28;86945;-53
2022/04/23 11:55:02;;;;;;;;;;;14.30;67.20;;;;;;5046092;28;87748;-53
2022/04/23 11:57:28;;;;;;;;;;;14.40;67.40;;;;;;5046389;28;86860;-52
2022/04/23 11:59:59;;;;;;;;;;;14.30;67.40;;;;;;5046381;28;87758;-53
2022/04/23 12:02:28;;;;;;;;;;;14.40;67.40;;;;;;5046153;28;88518;-51
2022/04/23 12:04:54;;;;;;;;;;;14.40;67.50;;;;;;5046299;28;87012;-53
2022/04/23 12:07:21;;;;;;;;;;;14.40;67.40;;;;;;5046384;28;86944;-50
2022/04/23 12:09:46;;;;;;;;;;;14.40;67.60;;;;;;5045888;28;87701;-51
2022/04/23 12:12:22;;;;;;;;;;;14.40;67.40;;;;;;5046268;28;86837;-51
2022/04/23 12:14:58;;;;;;;;;;;14.40;67.30;;;;;;5048233;28;87874;-50
2022/04/23 12:17:26;;;;;;;;;;;14.40;67.40;;;;;;5046118;28;86900;-50
2022/04/23 12:19:52;;;;;;;;;;;14.50;67.40;;;;;;5046119;28;88299;-50
2022/04/23 12:22:35;;;;;;;;;;;14.50;67.30;;;;;;5045909;28;87641;-52
2022/04/23 12:25:07;;;;;;;;;;;14.50;67.30;;;;;;5046347;28;86955;-51
2022/04/23 12:27:52;;;;;;;;;;;14.50;67.10;;;;;;5045951;28;87134;-53
2022/04/23 12:41:24;;;;;;;;;;;14.60;67.40;;;;;;5042150;28;87929;-51
2022/04/23 12:43:52;;;;;;;;;;;14.60;67.30;;;;;;5046176;28;87188;-51
2022/04/23 12:46:17;;;;;;;;;;;14.60;67.30;;;;;;5045777;28;86866;-50
2022/04/23 12:48:59;;;;;;;;;;;14.70;67.30;;;;;;5045740;28;87146;-50
2022/04/23 12:51:25;;;;;;;;;;;14.70;67.30;;;;;;5045528;27;87547;-51
2022/04/23 12:53:50;;;;;;;;;;;14.70;67.30;;;;;;5049445;28;86882;-50
2022/04/23 12:56:18;;;;;;;;;;;14.70;67.20;;;;;;5049550;28;86921;-50
2022/04/23 12:58:44;;;;;;;;;;;14.80;67.20;;;;;;5052308;28;87590;-52
2022/04/23 13:01:09;;;;;;;;;;;14.80;67.10;;;;;;5049458;28;86868;-51
2022/04/23 13:03:44;;;;;;;;;;;14.80;67.10;;;;;;5048775;28;88621;-51
2022/04/23 13:09:04;;;;;;;;;;;14.90;67.10;;;;;;5010722;28;87809;-50
2022/04/23 13:11:30;;;;;;;;;;;14.90;66.90;;;;;;5049018;28;86905;-51
2022/04/23 13:13:57;;;;;;;;;;;14.80;67.00;;;;;;5048913;28;86873;-51
2022/04/23 13:16:24;;;;;;;;;;;14.80;67.00;;;;;;5049262;28;86873;-53
2022/04/23 13:18:54;;;;;;;;;;;14.90;67.60;;;;;;5048532;28;88947;-52
2022/04/23 13:21:21;;;;;;;;;;;14.90;66.80;;;;;;5051815;28;86914;-52
2022/04/23 13:23:46;;;;;;;;;;;15.00;66.80;;;;;;5049010;28;87785;-51
2022/04/23 13:26:13;;;;;;;;;;;15.00;66.80;;;;;;5048705;28;86975;-52
2022/04/23 13:28:39;;;;;;;;;;;14.90;66.80;;;;;;5048454;28;87042;-51
2022/04/23 13:31:05;;;;;;;;;;;14.90;66.80;;;;;;5047955;28;88796;-52
2022/04/23 13:33:31;;;;;;;;;;;14.90;66.90;;;;;;5048909;28;87151;-50
2022/04/23 13:35:56;;;;;;;;;;;15.00;66.80;;;;;;5048922;28;86959;-55
2022/04/23 13:38:22;;;;;;;;;;;15.00;66.70;;;;;;5048362;28;88753;-50
2022/04/23 13:40:48;;;;;;;;;;;15.10;66.70;;;;;;5048478;28;86905;-51
2022/04/23 13:43:14;;;;;;;;;;;15.00;66.60;;;;;;5051199;28;87628;-51
2022/04/23 13:45:40;;;;;;;;;;;15.10;66.60;;;;;;5048452;28;86868;-52
2022/04/23 13:48:07;;;;;;;;;;;15.10;66.60;;;;;;5049053;28;87908;-53
2022/04/23 13:50:33;;;;;;;;;;;15.10;66.70;;;;;;5047726;28;87619;-52
2022/04/23 13:52:58;;;;;;;;;;;15.10;66.50;;;;;;5048437;28;86959;-50
2022/04/23 13:55:25;;;;;;;;;;;15.10;66.70;;;;;;5047859;28;87868;-50
2022/04/23 13:57:50;;;;;;;;;;;15.10;66.70;;;;;;5047936;28;87826;-51
2022/04/23 14:00:16;;;;;;;;;;;15.10;66.60;;;;;;5048167;28;87047;-52
2022/04/23 14:13:29;;;;;;;;;;;15.30;66.50;;;;;;5088645;23;89126;-51
2022/04/23 14:15:55;;;;;;;;;;;15.30;66.50;;;;;;5047473;28;86943;-51
2022/04/23 14:18:21;;;;;;;;;;;15.40;66.60;;;;;;5047799;28;87525;-53
2022/04/23 14:20:46;;;;;;;;;;;15.40;66.30;;;;;;5047430;28;88086;-54
2022/04/23 14:23:12;;;;;;;;;;;15.40;66.70;;;;;;5048313;28;87719;-52
2022/04/23 14:25:40;;;;;;;;;;;15.50;66.30;;;;;;5047885;28;86980;-51
2022/04/23 14:28:05;;;;;;;;;;;15.50;66.30;;;;;;5050998;28;86860;-52
2022/04/23 14:30:31;;;;;;;;;;;15.40;66.40;;;;;;5047566;28;88495;-54
2022/04/23 14:32:56;;;;;;;;;;;15.40;66.60;;;;;;5048037;28;87185;-51
2022/04/23 14:35:22;;;;;;;;;;;15.40;66.70;;;;;;5048167;28;86853;-50
2022/04/23 14:37:51;;;;;;;;;;;15.40;66.80;;;;;;5048392;28;86147;-52
2022/04/23 14:40:16;;;;;;;;;;;15.30;66.80;;;;;;5047039;28;87077;-51
2022/04/23 14:42:42;;;;;;;;;;;15.30;67.50;;;;;;5047796;28;87849;-52
2022/04/23 14:45:08;;;;;;;;;;;15.40;66.60;;;;;;5047020;28;89633;-54
2022/04/23 14:47:33;;;;;;;;;;;15.50;66.30;;;;;;5047811;28;86891;-51
2022/04/23 14:49:59;;;;;;;;;;;15.50;66.00;;;;;;5050351;28;86933;-51
2022/04/23 14:55:09;;;;;;;;;;;15.60;65.80;;;;;;5048059;28;86771;-52
2022/04/23 14:57:35;;;;;;;;;;;15.60;65.70;;;;;;5047546;28;88346;-51
2022/04/23 15:00:00;;;;;;;;;;;15.60;65.70;;;;;;5047675;28;87173;-52
2022/04/23 15:02:26;;;;;;;;;;;15.70;65.70;;;;;;5048265;28;86113;-52
2022/04/23 15:04:52;;;;;;;;;;;15.70;65.50;;;;;;5047134;28;86899;-52